Ava, Ohio
Current Conditions -  °F | °C
As of 6:53 AM on Thursday 29 Jan 2015 (Local Time) from KZZV Reporting Station
Broken Clouds Broken Clouds  
Wind Chill: 19°   Ceiling: 9500
Heat Index: 27°   Visibility: 10mi
Dew Point: 14°   Wind: 8mph
Humidity: 58%   Direction: 140°SE
Pressure: 30"   Gusts: NA
Location:  39.83°N, 81.57°W
Report Text: KZZV 291153Z AUTO 14007KT 10SM BKN095 M03/M10 A3000 RMK AO2 SLP170 T10281100 11028 21050 56034
Loading
Personal Weather Stations






























Interactive Weather Map New forecast layout! Learn more

10-Day Weather Forecast

Advertisements
Track Severe Weather on mobile